Time;durP1;ratioP1;P1;durP2;ratioP2;P2;SDS_P1;SDS_P2;PMS_P1;PMS_P2;Temp;Humidity;BMP_temperature;BMP_pressure;BME280_temperature;BME280_humidity;BME280_pressure;Samples;Min_cycle;Max_cycle;Signal;HPM_P1;HPM_P2
2021/01/24 00:00:11;;;;;;;3.60;1.42;;;16.00;47.10;;;;;;6147048;23;20157;-80
2021/01/24 00:02:39;;;;;;;4.68;1.60;;;16.10;47.00;;;;;;6170669;23;20150;-81
2021/01/24 00:05:12;;;;;;;4.25;1.30;;;16.10;47.00;;;;;;6170694;23;20155;-80
2021/01/24 00:07:42;;;;;;;4.30;1.48;;;16.10;47.00;;;;;;6146588;23;20151;-81
2021/01/24 00:10:18;;;;;;;2.58;1.30;;;16.10;47.10;;;;;;6145378;23;20170;-81
2021/01/24 00:12:46;;;;;;;3.72;1.38;;;16.00;47.10;;;;;;6195572;23;20170;-80
2021/01/24 00:15:18;;;;;;;3.00;1.50;;;16.00;47.10;;;;;;6146005;23;20169;-81
2021/01/24 00:17:53;;;;;;;1.92;1.25;;;16.00;47.20;;;;;;6195170;23;20131;-80
2021/01/24 00:20:19;;;;;;;3.83;1.48;;;16.00;47.20;;;;;;6195307;23;20130;-81
2021/01/24 00:22:46;;;;;;;3.40;1.77;;;16.00;47.30;;;;;;6169506;23;20185;-81
2021/01/24 00:25:12;;;;;;;4.18;1.70;;;16.00;47.20;;;;;;6145481;23;20233;-81
2021/01/24 00:27:38;;;;;;;2.65;1.63;;;16.00;47.20;;;;;;6169342;23;20475;-81
2021/01/24 00:30:09;;;;;;;2.80;1.63;;;16.00;47.20;;;;;;6170103;23;20142;-81
2021/01/24 00:32:35;;;;;;;3.80;1.70;;;16.00;47.20;;;;;;6144095;23;20206;-80
2021/01/24 00:35:01;;;;;;;2.95;1.33;;;16.00;47.10;;;;;;6145123;23;20181;-80
2021/01/24 00:37:26;;;;;;;2.75;1.30;;;16.10;47.10;;;;;;6169541;23;20218;-80
2021/01/24 00:39:52;;;;;;;4.70;1.50;;;16.00;47.00;;;;;;6144834;23;20482;-80
2021/01/24 00:42:23;;;;;;;3.92;1.45;;;16.00;47.00;;;;;;6169773;23;20135;-81
2021/01/24 00:44:55;;;;;;;2.30;1.40;;;16.00;47.10;;;;;;6169166;23;20154;-81
2021/01/24 00:47:21;;;;;;;3.42;1.65;;;16.00;47.10;;;;;;6145240;23;20147;-81
2021/01/24 00:49:50;;;;;;;2.97;1.27;;;16.00;47.20;;;;;;6194189;23;20162;-81
2021/01/24 00:52:25;;;;;;;3.30;1.63;;;16.00;47.10;;;;;;6193692;23;20173;-80
2021/01/24 00:54:53;;;;;;;2.75;1.48;;;16.00;47.10;;;;;;6193801;23;20126;-80
2021/01/24 00:57:22;;;;;;;3.85;1.40;;;16.00;47.10;;;;;;6194282;23;20547;-80
2021/01/24 00:59:53;;;;;;;3.85;1.63;;;16.00;47.20;;;;;;6192867;23;20135;-80
2021/01/24 01:02:19;;;;;;;3.80;1.55;;;16.00;47.20;;;;;;6168377;23;20146;-81
2021/01/24 01:04:46;;;;;;;3.70;1.70;;;16.00;47.20;;;;;;6143758;23;20150;-80
2021/01/24 01:07:12;;;;;;;2.83;1.40;;;16.00;47.10;;;;;;6192599;23;20563;-81
2021/01/24 01:09:40;;;;;;;3.25;2.00;;;16.00;47.20;;;;;;6168229;23;20150;-80
2021/01/24 01:12:08;;;;;;;2.70;1.45;;;16.00;47.00;;;;;;6143706;23;20189;-81
2021/01/24 01:14:38;;;;;;;3.85;1.50;;;16.00;47.00;;;;;;6167654;23;20141;-80
2021/01/24 01:17:04;;;;;;;4.28;1.60;;;16.00;47.00;;;;;;6144019;23;20178;-81
2021/01/24 01:19:32;;;;;;;4.05;1.45;;;16.00;47.00;;;;;;6168628;23;20150;-80
2021/01/24 01:22:00;;;;;;;2.30;1.55;;;16.00;47.10;;;;;;6193163;23;20141;-81
2021/01/24 01:24:35;;;;;;;4.28;1.50;;;16.00;47.70;;;;;;6169112;23;20139;-80
2021/01/24 01:27:01;;;;;;;3.08;1.50;;;16.00;47.10;;;;;;6168038;23;20198;-80
2021/01/24 01:29:28;;;;;;;3.25;1.85;;;16.00;47.10;;;;;;6168521;23;20179;-80
2021/01/24 01:32:01;;;;;;;2.47;1.30;;;16.00;47.10;;;;;;6193430;23;20158;-80
2021/01/24 01:34:29;;;;;;;2.08;1.27;;;16.00;47.10;;;;;;6149255;23;20201;-80
2021/01/24 01:36:56;;;;;;;3.67;1.70;;;16.00;47.20;;;;;;6174576;23;20134;-80
2021/01/24 01:39:24;;;;;;;4.00;1.95;;;16.00;47.20;;;;;;6174828;23;20213;-80
2021/01/24 01:41:50;;;;;;;3.70;1.75;;;16.00;47.10;;;;;;6174571;23;20139;-80
2021/01/24 01:44:19;;;;;;;2.30;1.42;;;16.00;47.10;;;;;;6175548;23;20138;-80
2021/01/24 01:46:54;;;;;;;3.47;1.55;;;16.00;47.10;;;;;;6151029;23;20142;-80
2021/01/24 01:49:24;;;;;;;1.80;1.40;;;16.00;47.00;;;;;;6175725;23;20141;-80
2021/01/24 01:51:55;;;;;;;4.75;2.08;;;16.00;47.10;;;;;;6176786;23;20177;-80
2021/01/24 01:54:22;;;;;;;3.03;1.60;;;16.00;47.10;;;;;;6176939;23;20146;-80
2021/01/24 01:56:57;;;;;;;2.03;1.45;;;16.00;47.10;;;;;;6175246;23;20485;-80
2021/01/24 01:59:32;;;;;;;3.17;1.60;;;16.00;47.10;;;;;;6200037;23;20140;-80
2021/01/24 02:02:20;;;;;;;2.70;1.50;;;16.00;47.10;;;;;;6176165;23;20172;-80
2021/01/24 02:04:56;;;;;;;3.17;1.60;;;16.00;47.00;;;;;;6227085;23;20142;-80
2021/01/24 02:07:50;;;;;;;2.10;1.40;;;16.00;47.00;;;;;;6200574;23;20164;-80
2021/01/24 02:10:21;;;;;;;3.30;1.80;;;16.00;47.10;;;;;;6226903;23;20490;-80
2021/01/24 02:13:00;;;;;;;3.65;1.67;;;16.00;47.00;;;;;;6200025;23;20180;-80
2021/01/24 02:15:25;;;;;;;5.68;2.13;;;16.00;47.10;;;;;;6175321;23;20142;-80
2021/01/24 02:17:57;;;;;;;3.97;1.70;;;16.00;47.10;;;;;;6152030;23;20146;-80
2021/01/24 02:20:28;;;;;;;2.25;1.50;;;16.00;47.10;;;;;;6177597;23;20196;-80
2021/01/24 02:22:56;;;;;;;3.85;1.40;;;16.00;47.10;;;;;;6153589;23;20570;-80
2021/01/24 02:25:44;;;;;;;3.13;1.73;;;16.00;47.20;;;;;;6177967;23;20130;-80
2021/01/24 02:28:36;;;;;;;2.92;1.55;;;16.00;47.10;;;;;;6202864;23;20157;-80
2021/01/24 02:31:03;;;;;;;5.65;1.60;;;15.90;47.20;;;;;;6229822;23;20146;-80
2021/01/24 02:33:29;;;;;;;2.05;1.38;;;16.00;47.20;;;;;;6201228;23;20193;-80
2021/01/24 02:35:58;;;;;;;2.05;1.45;;;16.00;47.10;;;;;;6152267;23;20209;-80
2021/01/24 02:38:26;;;;;;;5.47;2.00;;;16.00;47.00;;;;;;6153947;23;20246;-80
2021/01/24 02:40:55;;;;;;;2.22;1.40;;;16.00;47.10;;;;;;6153313;23;20574;-80
2021/01/24 02:43:22;;;;;;;2.78;1.52;;;16.00;47.00;;;;;;6177651;23;20147;-80
2021/01/24 02:45:55;;;;;;;4.00;1.70;;;16.00;47.10;;;;;;6177249;23;20566;-80
2021/01/24 02:48:24;;;;;;;2.10;1.42;;;16.00;47.00;;;;;;6202652;23;20130;-80
2021/01/24 02:50:51;;;;;;;2.90;1.42;;;16.00;47.10;;;;;;6203549;23;20130;-80
2021/01/24 02:53:17;;;;;;;3.92;1.75;;;16.00;47.20;;;;;;6177284;23;20170;-80
2021/01/24 02:55:43;;;;;;;2.45;1.50;;;16.00;47.10;;;;;;6177906;23;20177;-80
2021/01/24 02:58:10;;;;;;;4.97;1.67;;;16.00;47.20;;;;;;6176739;23;20138;-80
2021/01/24 03:00:37;;;;;;;2.80;1.60;;;16.00;47.20;;;;;;6177846;23;20137;-80
2021/01/24 03:03:12;;;;;;;3.90;1.67;;;15.90;47.20;;;;;;6203109;23;20138;-80
2021/01/24 03:05:39;;;;;;;2.22;1.50;;;16.00;47.10;;;;;;6177174;23;20138;-80
2021/01/24 03:08:07;;;;;;;2.78;1.42;;;16.00;47.80;;;;;;6177838;23;20130;-80
2021/01/24 03:10:34;;;;;;;2.30;1.60;;;16.00;47.00;;;;;;6202290;23;20138;-80
2021/01/24 03:13:23;;;;;;;2.13;1.35;;;16.00;47.20;;;;;;6176640;23;20178;-80
2021/01/24 03:15:49;;;;;;;2.42;1.70;;;15.90;47.20;;;;;;6201980;23;20130;-80
2021/01/24 03:18:20;;;;;;;3.38;1.75;;;15.90;47.20;;;;;;6176689;23;20133;-80
2021/01/24 03:20:49;;;;;;;3.47;1.60;;;16.00;47.10;;;;;;6152769;23;20142;-80
2021/01/24 03:23:14;;;;;;;1.73;1.50;;;16.00;47.10;;;;;;6151902;23;20149;-80
2021/01/24 03:25:43;;;;;;;2.17;1.40;;;16.00;47.00;;;;;;6177186;23;20126;-80
2021/01/24 03:28:12;;;;;;;2.70;1.33;;;16.00;47.10;;;;;;6176115;23;20157;-80
2021/01/24 03:30:40;;;;;;;2.95;1.48;;;16.00;47.10;;;;;;6176265;23;20142;-80
2021/01/24 03:33:06;;;;;;;3.25;1.27;;;16.00;47.10;;;;;;6196316;23;20190;-80
2021/01/24 03:35:36;;;;;;;2.95;1.67;;;16.00;47.00;;;;;;6146535;23;20170;-80
2021/01/24 03:38:02;;;;;;;2.55;1.50;;;16.00;47.10;;;;;;6170893;23;20583;-80
2021/01/24 03:40:39;;;;;;;3.92;1.50;;;16.00;47.10;;;;;;6146864;23;20149;-80
2021/01/24 03:43:06;;;;;;;2.95;1.35;;;16.00;47.10;;;;;;6147334;23;20146;-80
2021/01/24 03:45:32;;;;;;;4.47;1.67;;;15.90;47.20;;;;;;6146895;23;20567;-80
2021/01/24 03:48:00;;;;;;;2.72;1.60;;;16.00;47.10;;;;;;6147713;23;20143;-80
2021/01/24 03:50:26;;;;;;;2.33;1.38;;;16.00;47.10;;;;;;6171340;23;20146;-80
2021/01/24 03:52:55;;;;;;;3.38;1.52;;;16.00;47.00;;;;;;6197144;23;20165;-80
2021/01/24 03:55:21;;;;;;;2.22;1.42;;;16.00;47.00;;;;;;6196189;23;20131;-80
2021/01/24 03:57:48;;;;;;;2.45;1.42;;;16.00;47.10;;;;;;6146108;23;20149;-80
2021/01/24 04:00:14;;;;;;;4.25;1.50;;;15.90;47.10;;;;;;6147077;23;20444;-80
2021/01/24 04:02:40;;;;;;;2.95;1.70;;;16.00;47.10;;;;;;6148250;23;20146;-80
2021/01/24 04:05:07;;;;;;;2.40;1.48;;;16.00;47.00;;;;;;6146722;23;20139;-80
2021/01/24 04:07:36;;;;;;;4.18;1.75;;;15.90;47.00;;;;;;6172569;23;20132;-80
2021/01/24 04:10:06;;;;;;;2.63;1.85;;;16.00;47.00;;;;;;6197073;23;20162;-80
2021/01/24 04:12:37;;;;;;;2.17;1.60;;;16.00;47.10;;;;;;6172465;23;20185;-80
2021/01/24 04:15:05;;;;;;;2.78;1.67;;;16.00;47.00;;;;;;6172178;23;20480;-79
2021/01/24 04:17:33;;;;;;;3.22;1.80;;;16.00;47.10;;;;;;6196869;23;20500;-80
2021/01/24 04:19:59;;;;;;;3.20;1.70;;;16.00;47.10;;;;;;6173451;23;20153;-80
2021/01/24 04:22:26;;;;;;;3.25;1.85;;;16.00;47.00;;;;;;6172191;23;20187;-80
2021/01/24 04:24:52;;;;;;;2.75;1.70;;;16.00;47.10;;;;;;6172597;23;20131;-80
2021/01/24 04:27:25;;;;;;;2.63;1.65;;;15.90;47.10;;;;;;6147929;23;20552;-80
2021/01/24 04:29:51;;;;;;;2.95;1.50;;;16.00;47.20;;;;;;6172704;23;20150;-80
2021/01/24 04:32:16;;;;;;;2.47;1.42;;;15.90;47.20;;;;;;6174907;23;20166;-80
2021/01/24 04:34:42;;;;;;;3.25;1.60;;;15.90;47.10;;;;;;6153171;23;20150;-80
2021/01/24 04:37:10;;;;;;;3.30;1.40;;;16.00;47.20;;;;;;6152422;23;20197;-80
2021/01/24 04:39:37;;;;;;;1.73;1.30;;;15.90;47.10;;;;;;6152745;23;20146;-80
2021/01/24 04:42:05;;;;;;;4.68;1.92;;;15.90;47.10;;;;;;6176413;23;20137;-80
2021/01/24 04:44:31;;;;;;;3.78;1.75;;;15.90;47.10;;;;;;6177674;23;20126;-80
2021/01/24 04:46:58;;;;;;;3.60;1.60;;;16.00;47.00;;;;;;6177551;23;20130;-80
2021/01/24 04:49:24;;;;;;;2.55;1.38;;;16.00;47.10;;;;;;6151971;23;20145;-80
2021/01/24 04:51:53;;;;;;;3.25;1.50;;;15.90;47.00;;;;;;6152042;23;20142;-80
2021/01/24 04:54:21;;;;;;;2.92;1.63;;;15.90;47.10;;;;;;6201202;23;20130;-80
2021/01/24 04:56:47;;;;;;;1.85;1.60;;;16.00;47.10;;;;;;6177592;23;20152;-80
2021/01/24 04:59:22;;;;;;;2.55;1.50;;;16.00;47.10;;;;;;6176637;23;20130;-80
2021/01/24 05:01:51;;;;;;;4.65;1.52;;;15.90;47.10;;;;;;6151224;23;20138;-80
2021/01/24 05:04:17;;;;;;;2.42;1.48;;;16.00;47.10;;;;;;6176653;23;20346;-80
2021/01/24 05:06:43;;;;;;;2.47;1.55;;;16.00;47.00;;;;;;6152556;23;20232;-80
2021/01/24 05:09:10;;;;;;;2.35;1.40;;;16.00;47.00;;;;;;6176554;23;20127;-80
2021/01/24 05:11:37;;;;;;;2.53;1.65;;;15.90;47.00;;;;;;6176499;23;20263;-80
2021/01/24 05:14:16;;;;;;;2.70;1.45;;;16.00;47.10;;;;;;6151635;23;20513;-80
2021/01/24 05:16:42;;;;;;;2.35;1.65;;;15.90;47.10;;;;;;6176758;23;20154;-80
2021/01/24 05:19:10;;;;;;;2.70;1.55;;;16.00;47.00;;;;;;6151746;23;20149;-80
2021/01/24 05:21:37;;;;;;;3.58;1.67;;;16.00;47.00;;;;;;6176434;23;20150;-80
2021/01/24 05:24:12;;;;;;;2.90;1.60;;;16.00;47.10;;;;;;6150495;23;20147;-80
2021/01/24 05:26:39;;;;;;;2.78;1.70;;;15.90;47.00;;;;;;6200873;23;20122;-80
2021/01/24 05:29:06;;;;;;;2.47;1.60;;;15.90;47.00;;;;;;6151658;23;20138;-80
2021/01/24 05:31:31;;;;;;;3.63;1.60;;;15.90;47.00;;;;;;6152440;23;20204;-80
2021/01/24 05:33:58;;;;;;;2.20;1.50;;;15.90;47.00;;;;;;6150618;23;20205;-80
2021/01/24 05:36:24;;;;;;;2.10;1.50;;;16.00;47.00;;;;;;6151642;23;20148;-80
2021/01/24 05:39:00;;;;;;;2.83;1.70;;;16.00;46.90;;;;;;6151015;23;20210;-80
2021/01/24 05:41:31;;;;;;;3.60;1.58;;;15.90;47.00;;;;;;6151769;23;20149;-80
2021/01/24 05:44:01;;;;;;;2.45;1.67;;;15.90;47.10;;;;;;6175683;23;20165;-80
2021/01/24 05:46:46;;;;;;;1.77;1.30;;;15.90;47.00;;;;;;6175950;23;20138;-80
2021/01/24 05:49:20;;;;;;;2.78;1.80;;;15.90;47.00;;;;;;6175935;23;20137;-80
2021/01/24 05:52:08;;;;;;;3.28;1.60;;;15.90;47.00;;;;;;6200443;23;20204;-80
2021/01/24 05:54:50;;;;;;;2.45;1.60;;;15.90;47.10;;;;;;6175774;23;20141;-80
2021/01/24 05:57:21;;;;;;;2.58;1.90;;;15.90;47.10;;;;;;6176634;23;20154;-80
2021/01/24 05:59:58;;;;;;;2.58;1.33;;;15.90;47.10;;;;;;6175872;23;20149;-80
2021/01/24 06:02:27;;;;;;;2.88;1.58;;;15.90;47.00;;;;;;6176282;23;20170;-80
2021/01/24 06:04:55;;;;;;;4.07;1.83;;;15.90;47.00;;;;;;6175553;23;20137;-80
2021/01/24 06:07:24;;;;;;;3.42;1.50;;;15.90;47.00;;;;;;6176645;23;20173;-80
2021/01/24 06:09:50;;;;;;;2.45;1.73;;;16.00;47.00;;;;;;6176662;23;20142;-80
2021/01/24 06:12:23;;;;;;;2.53;1.33;;;15.90;47.60;;;;;;6201428;23;20225;-80
2021/01/24 06:14:56;;;;;;;2.55;1.33;;;15.90;47.00;;;;;;6200005;23;20220;-80
2021/01/24 06:17:27;;;;;;;4.30;1.73;;;16.00;46.90;;;;;;6176875;23;20149;-80
2021/01/24 06:19:58;;;;;;;1.85;1.58;;;15.90;46.90;;;;;;6201062;23;20142;-79
2021/01/24 06:22:26;;;;;;;3.85;1.77;;;16.00;47.00;;;;;;6176014;23;20637;-80
2021/01/24 06:24:55;;;;;;;2.67;1.70;;;16.00;46.90;;;;;;6176481;23;20578;-80
2021/01/24 06:27:24;;;;;;;3.03;1.77;;;16.00;46.90;;;;;;6152869;23;20584;-80
2021/01/24 06:29:52;;;;;;;2.15;1.70;;;16.00;46.90;;;;;;6151120;23;20247;-80
2021/01/24 06:32:29;;;;;;;3.58;1.88;;;16.00;46.90;;;;;;6150350;23;20202;-80
2021/01/24 06:34:55;;;;;;;3.75;1.63;;;15.90;46.90;;;;;;6150931;23;20225;-80
2021/01/24 06:37:22;;;;;;;2.33;1.60;;;16.00;47.00;;;;;;6150674;23;20180;-80
2021/01/24 06:39:55;;;;;;;3.25;1.85;;;15.90;47.00;;;;;;6174990;23;20177;-80
2021/01/24 06:42:37;;;;;;;3.05;1.40;;;15.90;47.20;;;;;;6176377;23;20198;-80
2021/01/24 06:45:29;;;;;;;2.38;1.65;;;15.90;47.10;;;;;;6176356;23;20130;-80
2021/01/24 06:48:02;;;;;;;2.00;1.48;;;16.00;47.00;;;;;;6179820;23;20146;-80
2021/01/24 06:50:42;;;;;;;2.22;1.52;;;16.00;46.90;;;;;;6200768;23;20135;-80
2021/01/24 06:53:09;;;;;;;2.70;1.50;;;15.90;46.90;;;;;;6200657;23;20226;-80
2021/01/24 06:55:38;;;;;;;2.55;1.50;;;15.90;46.90;;;;;;6175209;23;20154;-80
2021/01/24 06:58:26;;;;;;;3.22;1.55;;;15.90;46.90;;;;;;6151570;23;20150;-80
2021/01/24 07:00:52;;;;;;;3.67;1.70;;;15.90;46.90;;;;;;6176184;23;20143;-80
2021/01/24 07:03:21;;;;;;;3.28;1.42;;;16.00;46.90;;;;;;6175984;23;20134;-80
2021/01/24 07:05:49;;;;;;;2.90;1.58;;;16.00;46.80;;;;;;6168111;23;20130;-80
2021/01/24 07:08:32;;;;;;;2.20;1.52;;;16.00;46.90;;;;;;6168555;23;20202;-80
2021/01/24 07:10:59;;;;;;;3.13;1.50;;;16.00;46.90;;;;;;6195626;23;20224;-80
2021/01/24 07:13:29;;;;;;;1.75;1.38;;;16.00;47.00;;;;;;6149794;23;20181;-80
2021/01/24 07:16:00;;;;;;;2.92;1.73;;;15.90;47.10;;;;;;6203912;23;20225;-80
2021/01/24 07:18:25;;;;;;;1.92;1.25;;;15.90;46.90;;;;;;6179528;23;20145;-80
2021/01/24 07:20:53;;;;;;;2.95;1.63;;;16.00;46.90;;;;;;6155633;23;20138;-80
2021/01/24 07:23:19;;;;;;;4.05;1.75;;;16.00;46.80;;;;;;6180237;23;20200;-80
2021/01/24 07:25:48;;;;;;;2.72;1.60;;;15.90;46.80;;;;;;6155620;23;20521;-80
2021/01/24 07:28:15;;;;;;;1.85;1.50;;;16.00;46.90;;;;;;6179610;23;20145;-80
2021/01/24 07:30:43;;;;;;;4.70;1.85;;;16.00;46.80;;;;;;6154560;23;20134;-80
2021/01/24 07:33:09;;;;;;;2.75;1.80;;;16.00;46.90;;;;;;6231095;23;20249;-80
2021/01/24 07:35:38;;;;;;;2.63;1.58;;;16.00;46.90;;;;;;6179837;23;20154;-80
2021/01/24 07:38:14;;;;;;;2.22;1.50;;;16.00;46.80;;;;;;6180045;23;20147;-80
2021/01/24 07:40:42;;;;;;;2.70;1.70;;;16.00;46.80;;;;;;6180371;23;20178;-80
2021/01/24 07:43:08;;;;;;;2.47;1.38;;;16.00;46.80;;;;;;6154890;23;20147;-80
2021/01/24 07:45:38;;;;;;;4.07;1.73;;;16.00;46.90;;;;;;6179658;23;20184;-80
2021/01/24 07:48:06;;;;;;;2.08;1.40;;;16.00;46.80;;;;;;6178890;23;20146;-80
2021/01/24 07:50:35;;;;;;;2.95;1.50;;;16.00;46.90;;;;;;6204401;23;20196;-80
2021/01/24 07:53:10;;;;;;;2.25;1.48;;;16.00;46.90;;;;;;6179325;23;20185;-80
2021/01/24 07:55:38;;;;;;;3.00;1.45;;;16.00;46.80;;;;;;6154607;23;20141;-80
2021/01/24 07:58:04;;;;;;;1.88;1.40;;;16.00;46.80;;;;;;6178086;23;20139;-80
2021/01/24 08:00:34;;;;;;;2.67;1.40;;;15.90;46.90;;;;;;6178259;23;20139;-80
2021/01/24 08:03:07;;;;;;;3.38;1.90;;;15.90;46.90;;;;;;6152731;23;20134;-80
2021/01/24 08:05:33;;;;;;;2.30;1.45;;;15.90;46.90;;;;;;6176234;23;20134;-80
2021/01/24 08:08:02;;;;;;;2.55;1.60;;;16.00;46.90;;;;;;6150196;23;20165;-80
2021/01/24 08:10:38;;;;;;;2.83;1.80;;;16.00;46.90;;;;;;6174861;23;20562;-80
2021/01/24 08:13:05;;;;;;;2.97;1.60;;;16.00;46.70;;;;;;6204836;23;20161;-80
2021/01/24 08:15:41;;;;;;;2.47;1.58;;;16.00;46.80;;;;;;6180284;23;20218;-81
2021/01/24 08:18:08;;;;;;;3.00;1.80;;;16.00;46.60;;;;;;6182326;23;20213;-81
2021/01/24 08:20:35;;;;;;;1.95;1.45;;;16.10;46.50;;;;;;6181029;23;20138;-81
2021/01/24 08:23:02;;;;;;;1.92;1.30;;;16.00;46.60;;;;;;6155839;23;20146;-80
2021/01/24 08:25:31;;;;;;;3.67;1.50;;;16.00;46.60;;;;;;6181730;23;20258;-80
2021/01/24 08:27:58;;;;;;;2.30;1.35;;;16.10;46.60;;;;;;6207016;23;20218;-81
2021/01/24 08:30:26;;;;;;;3.50;1.90;;;16.00;46.60;;;;;;6182398;23;20134;-80
2021/01/24 08:32:52;;;;;;;1.70;1.40;;;16.00;46.60;;;;;;6202994;23;20202;-80
2021/01/24 08:35:18;;;;;;;4.38;1.67;;;16.00;46.60;;;;;;6154388;23;20161;-81
2021/01/24 08:37:53;;;;;;;3.13;1.70;;;16.10;46.90;;;;;;6201754;23;20131;-80
2021/01/24 08:40:34;;;;;;;2.20;1.40;;;16.10;46.70;;;;;;6172221;23;20519;-80
2021/01/24 08:43:01;;;;;;;2.72;1.65;;;16.10;46.90;;;;;;6196717;23;20135;-81
2021/01/24 08:45:36;;;;;;;2.13;1.42;;;16.10;47.10;;;;;;6205655;23;20131;-81
2021/01/24 08:48:05;;;;;;;2.72;1.60;;;16.10;47.10;;;;;;6180849;23;20181;-81
2021/01/24 08:50:34;;;;;;;3.13;1.67;;;16.10;47.00;;;;;;6174694;23;20139;-81
2021/01/24 08:53:06;;;;;;;2.40;1.60;;;16.10;46.80;;;;;;6172615;23;20174;-80
2021/01/24 08:55:51;;;;;;;2.30;1.70;;;16.10;46.90;;;;;;6175164;23;20151;-81
2021/01/24 08:58:28;;;;;;;2.65;1.60;;;16.10;46.90;;;;;;6176693;23;20142;-81
2021/01/24 09:01:11;;;;;;;2.92;1.67;;;16.10;46.70;;;;;;6177994;23;20158;-81
2021/01/24 09:03:42;;;;;;;3.03;1.77;;;16.10;46.70;;;;;;6153504;23;20490;-81
2021/01/24 09:06:16;;;;;;;5.10;2.10;;;16.10;46.60;;;;;;6179559;23;20143;-81
2021/01/24 09:08:52;;;;;;;5.40;1.80;;;16.10;46.50;;;;;;6202134;23;20127;-81
2021/01/24 09:11:19;;;;;;;4.15;1.92;;;16.10;46.70;;;;;;6179134;23;20157;-80
2021/01/24 09:13:46;;;;;;;2.95;1.90;;;16.10;46.70;;;;;;6204545;23;20170;-81
2021/01/24 09:16:13;;;;;;;3.90;1.80;;;16.10;46.60;;;;;;6178417;23;20175;-81
2021/01/24 09:18:39;;;;;;;3.08;1.63;;;16.10;46.70;;;;;;6202714;23;20130;-81
2021/01/24 09:21:15;;;;;;;3.42;1.80;;;16.10;46.70;;;;;;6177463;23;20143;-81
2021/01/24 09:23:42;;;;;;;8.52;3.50;;;16.10;46.60;;;;;;6201171;23;20135;-81
2021/01/24 09:26:09;;;;;;;6.25;2.63;;;16.20;46.90;;;;;;6201680;23;20132;-81
2021/01/24 09:28:36;;;;;;;3.65;2.38;;;16.20;46.70;;;;;;6203875;23;20131;-81
2021/01/24 09:31:08;;;;;;;8.75;3.30;;;16.20;46.80;;;;;;6178027;23;20145;-81
2021/01/24 09:33:34;;;;;;;11.07;3.83;;;16.20;47.30;;;;;;6205165;23;20190;-81
2021/01/24 09:36:00;;;;;;;7.80;2.38;;;16.20;47.70;;;;;;6154697;23;20182;-81
2021/01/24 09:38:35;;;;;;;4.13;1.92;;;16.20;46.80;;;;;;6179143;23;20142;-81
2021/01/24 09:41:02;;;;;;;4.05;2.05;;;16.20;46.70;;;;;;6179929;23;20142;-81
2021/01/24 09:43:28;;;;;;;2.28;1.65;;;16.20;46.80;;;;;;6180859;23;20202;-81
2021/01/24 09:45:55;;;;;;;3.50;1.85;;;16.10;46.70;;;;;;6181315;23;20139;-81
2021/01/24 09:48:22;;;;;;;3.58;1.95;;;16.20;47.10;;;;;;6205955;23;20131;-80
2021/01/24 09:50:49;;;;;;;7.90;1.88;;;16.20;46.90;;;;;;6204096;23;20158;-81
2021/01/24 09:53:16;;;;;;;6.22;2.33;;;16.20;46.80;;;;;;6179668;23;20171;-81
2021/01/24 09:55:51;;;;;;;3.33;2.00;;;16.20;46.90;;;;;;6174798;23;20146;-81
2021/01/24 09:58:17;;;;;;;3.92;1.80;;;16.20;47.40;;;;;;6175102;23;20139;-81
2021/01/24 10:00:44;;;;;;;5.30;2.08;;;16.20;47.00;;;;;;6177687;23;20142;-81
2021/01/24 10:03:12;;;;;;;4.32;1.98;;;16.20;47.00;;;;;;6201945;23;20194;-81
2021/01/24 10:05:42;;;;;;;4.45;2.42;;;16.20;46.90;;;;;;6175010;23;20159;-81
2021/01/24 10:08:16;;;;;;;5.55;2.33;;;16.20;46.80;;;;;;6173415;23;20151;-81
2021/01/24 10:10:45;;;;;;;6.05;2.45;;;16.20;46.80;;;;;;6199775;23;20135;-81
2021/01/24 10:13:13;;;;;;;4.55;2.35;;;16.20;46.80;;;;;;6197118;23;20243;-81
2021/01/24 10:15:40;;;;;;;6.30;2.60;;;16.30;46.90;;;;;;6174137;23;20157;-81
2021/01/24 10:18:08;;;;;;;6.70;2.58;;;16.30;46.70;;;;;;6198745;23;20127;-82
2021/01/24 10:20:34;;;;;;;4.35;2.63;;;16.30;46.70;;;;;;6198633;23;20139;-81
2021/01/24 10:23:02;;;;;;;4.78;2.17;;;16.30;46.70;;;;;;6172733;23;20143;-81
2021/01/24 10:25:31;;;;;;;3.70;2.25;;;16.30;46.70;;;;;;6201529;23;20131;-81
2021/01/24 10:27:59;;;;;;;4.20;2.10;;;16.30;46.70;;;;;;6177346;23;20135;-82
2021/01/24 10:30:26;;;;;;;5.35;2.00;;;16.30;46.70;;;;;;6205617;23;20132;-82
2021/01/24 10:32:55;;;;;;;5.07;2.40;;;16.30;46.70;;;;;;6201711;23;20273;-82
2021/01/24 10:35:21;;;;;;;3.45;2.00;;;16.20;47.10;;;;;;6153069;23;20475;-82
2021/01/24 10:37:48;;;;;;;3.90;2.05;;;16.20;47.80;;;;;;6178266;23;20198;-81
2021/01/24 10:40:15;;;;;;;3.28;2.25;;;16.20;47.10;;;;;;6180300;23;20147;-81
2021/01/24 10:42:42;;;;;;;6.18;2.30;;;16.20;47.20;;;;;;6204244;23;20135;-81
2021/01/24 10:45:18;;;;;;;6.45;2.40;;;16.30;47.30;;;;;;6203416;23;20150;-81
2021/01/24 10:47:46;;;;;;;2.97;1.92;;;16.30;47.30;;;;;;6177870;23;20154;-81
2021/01/24 10:50:25;;;;;;;4.97;2.13;;;16.30;47.30;;;;;;6202294;23;20229;-82
2021/01/24 10:52:52;;;;;;;3.38;2.03;;;16.30;47.20;;;;;;6194214;23;20214;-81
2021/01/24 10:55:19;;;;;;;3.70;2.00;;;16.30;47.20;;;;;;6195561;23;20130;-81
2021/01/24 10:57:45;;;;;;;7.05;2.50;;;16.20;47.30;;;;;;6171969;23;20154;-82
2021/01/24 11:00:11;;;;;;;3.90;2.40;;;16.20;47.40;;;;;;6197430;23;20135;-81
2021/01/24 11:02:38;;;;;;;3.83;2.22;;;16.20;47.30;;;;;;6196925;23;20135;-81
2021/01/24 11:05:08;;;;;;;8.00;2.53;;;16.20;47.20;;;;;;6199254;23;20138;-81
2021/01/24 11:07:35;;;;;;;18.88;3.50;;;16.30;47.30;;;;;;6173818;23;20147;-81
2021/01/24 11:10:15;;;;;;;26.08;3.45;;;16.30;47.20;;;;;;6177838;23;20215;-82
2021/01/24 11:12:42;;;;;;;27.55;4.00;;;16.20;47.30;;;;;;6183663;23;20231;-82
2021/01/24 11:15:10;;;;;;;15.15;3.08;;;16.20;47.30;;;;;;6202183;23;20139;-81
2021/01/24 11:17:37;;;;;;;17.30;2.70;;;16.20;47.30;;;;;;6179097;23;20194;-80
2021/01/24 11:20:07;;;;;;;6.95;2.50;;;16.20;47.30;;;;;;6199691;23;20564;-82
2021/01/24 11:22:33;;;;;;;14.60;2.72;;;16.30;47.20;;;;;;6197222;23;20218;-81
2021/01/24 11:24:58;;;;;;;10.32;2.60;;;16.40;47.10;;;;;;6148660;23;20143;-82
2021/01/24 11:27:24;;;;;;;8.18;2.38;;;16.30;47.10;;;;;;6172624;23;20138;-82
2021/01/24 11:29:50;;;;;;;5.60;2.30;;;16.30;47.20;;;;;;6198206;23;20127;-82
2021/01/24 11:32:15;;;;;;;4.32;2.42;;;16.30;47.30;;;;;;6149096;23;20179;-82
2021/01/24 11:34:42;;;;;;;8.65;2.42;;;16.30;47.40;;;;;;6203140;23;20585;-82
2021/01/24 11:37:09;;;;;;;7.80;2.15;;;16.40;47.40;;;;;;6177679;23;20154;-82
2021/01/24 11:39:36;;;;;;;5.88;2.30;;;16.30;47.30;;;;;;6176013;23;20142;-81
2021/01/24 11:42:04;;;;;;;6.72;2.35;;;16.20;47.50;;;;;;6200419;23;20137;-81
2021/01/24 11:44:38;;;;;;;5.97;2.20;;;16.20;47.50;;;;;;6173082;23;20153;-82
2021/01/24 11:47:05;;;;;;;13.02;2.88;;;16.30;47.50;;;;;;6175774;23;20142;-81
2021/01/24 11:49:40;;;;;;;8.40;2.50;;;16.20;47.50;;;;;;6204400;23;20141;-81
2021/01/24 11:52:14;;;;;;;10.63;2.70;;;16.30;47.60;;;;;;6178586;23;20141;-81
2021/01/24 11:54:42;;;;;;;8.82;2.83;;;16.30;47.50;;;;;;6204362;23;20126;-81
2021/01/24 11:57:09;;;;;;;13.30;2.58;;;16.30;47.50;;;;;;6177592;23;20178;-81
2021/01/24 11:59:36;;;;;;;29.02;4.07;;;16.30;47.60;;;;;;6229865;23;20127;-82
2021/01/24 12:02:02;;;;;;;11.82;2.70;;;16.30;47.70;;;;;;6177834;23;20220;-82
2021/01/24 12:04:29;;;;;;;15.43;2.78;;;16.30;47.70;;;;;;6204958;23;20177;-82
2021/01/24 12:06:56;;;;;;;13.38;2.70;;;16.30;47.50;;;;;;6179044;23;20510;-80
2021/01/24 12:09:23;;;;;;;20.50;2.60;;;16.40;47.40;;;;;;6177534;23;20146;-81
2021/01/24 12:11:50;;;;;;;24.00;3.90;;;16.40;47.50;;;;;;6202168;23;20142;-81
2021/01/24 12:14:26;;;;;;;32.63;3.97;;;16.40;47.40;;;;;;6200516;23;20166;-82
2021/01/24 12:16:54;;;;;;;24.20;3.78;;;16.40;47.30;;;;;;6140054;23;20151;-81
2021/01/24 12:19:27;;;;;;;29.05;4.15;;;16.40;47.30;;;;;;6114178;23;20226;-81
2021/01/24 12:22:09;;;;;;;24.75;2.97;;;16.40;47.40;;;;;;6115875;23;20166;-81
2021/01/24 12:24:40;;;;;;;20.48;3.38;;;16.40;47.50;;;;;;6091482;23;20151;-81
2021/01/24 12:27:11;;;;;;;19.05;3.38;;;16.30;47.50;;;;;;6047537;23;20167;-81
2021/01/24 12:29:38;;;;;;;22.55;3.90;;;16.40;48.00;;;;;;6116343;23;20151;-80
2021/01/24 12:32:06;;;;;;;18.15;3.35;;;16.40;47.40;;;;;;6037117;23;20680;-81
2021/01/24 12:34:53;;;;;;;24.60;3.35;;;16.50;47.40;;;;;;6012329;23;20192;-81
2021/01/24 12:37:31;;;;;;;30.73;4.22;;;16.40;48.20;;;;;;6061773;23;20171;-82
2021/01/24 12:40:08;;;;;;;25.27;3.42;;;16.40;47.50;;;;;;6050667;23;20181;-83
2021/01/24 12:42:37;;;;;;;18.50;3.15;;;16.40;47.40;;;;;;5972031;24;20155;-82
2021/01/24 12:45:09;;;;;;;14.40;3.38;;;16.40;47.40;;;;;;5915126;24;20181;-82
2021/01/24 12:47:42;;;;;;;22.92;4.05;;;16.40;47.40;;;;;;5914454;24;20154;-81
2021/01/24 12:50:14;;;;;;;29.77;3.83;;;16.40;47.40;;;;;;5868032;24;20217;-81
2021/01/24 12:52:41;;;;;;;21.20;3.58;;;16.40;47.40;;;;;;5889310;24;20237;-80
2021/01/24 12:55:16;;;;;;;17.73;3.28;;;16.40;47.40;;;;;;5891368;24;20158;-81
2021/01/24 12:58:09;;;;;;;24.48;3.70;;;16.40;47.40;;;;;;5914783;24;20161;-81